Time;durP1;ratioP1;P1;durP2;ratioP2;P2;SDS_P1;SDS_P2;PMS_P1;PMS_P2;Temp;Humidity;BMP_temperature;BMP_pressure;BME280_temperature;BME280_humidity;BME280_pressure;Samples;Min_cycle;Max_cycle;Signal;HPM_P1;HPM_P2
2023/08/27 00:00:56;;;;;;;141.55;135.88;;;;;;;25.23;75.36;98121.38;4926154;28;102828;-74
2023/08/27 00:03:26;;;;;;;198.27;190.98;;;;;;;25.68;73.40;98114.84;4927588;28;103934;-73
2023/08/27 00:05:54;;;;;;;260.98;251.55;;;;;;;25.88;72.89;98104.66;4927421;28;103038;-74
2023/08/27 00:08:23;;;;;;;244.90;235.70;;;;;;;25.72;71.57;98094.41;4927227;28;103199;-73
2023/08/27 00:10:57;;;;;;;145.30;139.73;;;;;;;25.21;73.52;98074.78;4927795;28;102713;-74
2023/08/27 00:13:25;;;;;;;139.82;134.60;;;;;;;25.40;74.46;98071.16;4927947;28;102766;-74
2023/08/27 00:15:53;;;;;;;135.45;130.05;;;;;;;24.95;74.57;98048.78;4927556;28;103884;-74
2023/08/27 00:18:21;;;;;;;129.20;123.97;;;;;;;23.42;82.04;98035.09;4910382;28;103332;-74
2023/08/27 00:20:49;;;;;;;80.30;76.85;;;;;;;23.54;82.46;98044.22;4925610;28;102583;-73
2023/08/27 00:23:17;;;;;;;111.50;107.00;;;;;;;24.31;80.50;98043.44;4927136;28;102970;-73
2023/08/27 00:25:47;;;;;;;108.30;103.70;;;;;;;23.79;81.55;98044.41;4925441;28;105178;-73
2023/08/27 00:28:15;;;;;;;93.88;89.97;;;;;;;23.86;81.50;98047.09;4923537;28;103511;-74
2023/08/27 00:30:44;;;;;;;110.80;106.45;;;;;;;24.38;79.82;98057.78;4925692;28;102581;-73
2023/08/27 00:33:12;;;;;;;166.68;160.07;;;;;;;25.07;76.73;98059.72;4909624;28;102592;-73
2023/08/27 00:35:42;;;;;;;220.97;213.03;;;;;;;25.58;75.17;98082.03;4925374;28;104474;-73
2023/08/27 00:38:10;;;;;;;202.23;194.75;;;;;;;25.68;73.92;98095.91;4909470;28;103244;-74
2023/08/27 00:40:38;;;;;;;313.03;301.53;;;;;;;25.93;72.60;98096.72;4910027;28;102914;-74
2023/08/27 00:43:07;;;;;;;362.92;349.30;;;;;;;25.99;72.26;98105.00;4911027;28;102751;-74
2023/08/27 00:45:35;;;;;;;379.70;365.27;;;;;;;26.12;71.81;98094.03;4926161;28;104320;-74
2023/08/27 00:48:03;;;;;;;423.63;407.27;;;;;;;26.11;71.04;98105.88;4908792;28;103151;-74
2023/08/27 00:50:31;;;;;;;419.13;402.85;;;;;;;26.23;70.31;98101.44;4921344;28;102602;-74
2023/08/27 00:53:00;;;;;;;275.27;265.33;;;;;;;25.29;72.77;98120.50;4890314;28;102838;-73
2023/08/27 00:55:28;;;;;;;189.57;182.30;;;;;;;25.26;74.14;98132.56;4907602;28;103255;-74
2023/08/27 00:57:56;;;;;;;285.17;275.05;;;;;;;25.88;72.77;98126.31;4921683;28;103119;-74
2023/08/27 01:00:25;;;;;;;242.35;233.55;;;;;;;25.72;72.69;98136.84;4922524;28;102831;-73
2023/08/27 01:02:56;;;;;;;195.77;188.30;;;;;;;25.69;74.01;98134.56;4921582;28;102637;-74
2023/08/27 01:05:25;;;;;;;208.52;200.90;;;;;;;25.78;72.81;98125.16;4906161;28;103358;-74
2023/08/27 01:07:59;;;;;;;373.88;360.10;;;;;;;26.28;71.43;98120.53;4922551;28;103203;-73
2023/08/27 01:10:40;;;;;;;437.15;420.27;;;;;;;26.46;69.95;98113.28;4922655;28;102661;-73
2023/08/27 01:13:14;;;;;;;347.63;334.90;;;;;;;26.16;69.82;98122.34;4907230;28;103504;-74
2023/08/27 01:15:46;;;;;;;211.20;203.13;;;;;;;25.14;74.46;98120.81;4904460;28;103230;-74
2023/08/27 01:18:16;;;;;;;204.15;196.35;;;;;;;25.58;74.42;98103.66;4905351;28;104001;-74
2023/08/27 01:20:46;;;;;;;273.63;264.10;;;;;;;26.25;72.35;98089.31;4889803;28;102776;-74
2023/08/27 01:23:16;;;;;;;399.00;384.10;;;;;;;26.43;70.87;98083.09;4919780;28;102774;-74
2023/08/27 01:25:48;;;;;;;422.38;406.45;;;;;;;26.56;69.93;98074.81;4926261;28;104233;-74
2023/08/27 01:28:23;;;;;;;393.83;379.10;;;;;;;26.58;68.64;98071.88;4908558;28;103177;-74
2023/08/27 01:30:57;;;;;;;263.40;254.07;;;;;;;26.23;70.23;98074.38;4911717;28;102443;-74
2023/08/27 01:33:27;;;;;;;234.15;225.75;;;;;;;25.84;72.21;98075.56;4930199;28;104146;-74
2023/08/27 01:35:57;;;;;;;221.55;213.27;;;;;;;25.44;74.03;98069.63;4910842;28;103278;-74
2023/08/27 01:38:28;;;;;;;193.43;186.05;;;;;;;25.22;74.95;98081.88;4910977;28;103129;-74
2023/08/27 01:40:56;;;;;;;216.95;208.75;;;;;;;25.26;74.18;98085.81;4927607;28;102945;-73
2023/08/27 01:43:24;;;;;;;325.52;313.52;;;;;;;25.36;73.42;98100.47;4929601;28;102966;-74
2023/08/27 01:45:52;;;;;;;394.40;379.27;;;;;;;25.71;72.36;98095.44;4929127;28;103213;-74
2023/08/27 01:48:23;;;;;;;306.07;294.80;;;;;;;25.72;73.94;98093.56;4928932;28;102959;-73
2023/08/27 01:50:51;;;;;;;291.23;280.25;;;;;;;24.97;75.95;98095.31;4919296;28;102695;-73
2023/08/27 01:53:19;;;;;;;273.67;263.27;;;;;;;24.78;77.35;98078.16;4912122;28;104230;-73
2023/08/27 01:55:48;;;;;;;271.17;260.93;;;;;;;24.54;78.76;98064.53;4927369;28;103388;-74
2023/08/27 01:58:16;;;;;;;294.60;283.27;;;;;;;24.54;78.57;98056.44;4912814;28;103753;-74
2023/08/27 02:00:43;;;;;;;214.32;205.65;;;;;;;24.75;79.45;98051.59;4912410;28;102838;-74
2023/08/27 02:03:12;;;;;;;264.65;254.43;;;;;;;25.14;78.62;98052.41;4929798;28;102738;-74
2023/08/27 02:05:39;;;;;;;299.83;288.52;;;;;;;25.60;75.60;98068.31;4910499;28;103462;-73
2023/08/27 02:08:07;;;;;;;287.43;276.40;;;;;;;24.94;76.39;98084.13;4927340;28;104131;-74
2023/08/27 02:10:37;;;;;;;339.90;327.25;;;;;;;25.93;74.10;98075.06;4928839;28;102788;-73
2023/08/27 02:13:06;;;;;;;388.77;373.77;;;;;;;25.88;72.46;98072.19;4912167;28;103826;-74
2023/08/27 02:15:34;;;;;;;271.50;260.90;;;;;;;24.78;76.94;98061.97;4911284;28;104130;-74
2023/08/27 02:18:04;;;;;;;238.25;228.93;;;;;;;24.98;77.16;98050.22;4926881;28;103187;-74
2023/08/27 02:20:32;;;;;;;328.40;316.23;;;;;;;25.94;73.99;98049.66;4927948;28;102568;-73
2023/08/27 02:23:00;;;;;;;376.55;362.33;;;;;;;26.21;72.90;98044.81;4919175;28;102886;-73
2023/08/27 02:25:28;;;;;;;411.83;396.15;;;;;;;26.44;72.00;98039.53;4911523;28;105157;-74
2023/08/27 02:27:57;;;;;;;355.98;342.50;;;;;;;26.06;71.80;98054.31;4911341;28;103177;-73
2023/08/27 02:30:29;;;;;;;408.20;392.53;;;;;;;26.33;71.13;98066.56;4926262;28;102842;-74
2023/08/27 02:32:57;;;;;;;396.63;380.93;;;;;;;26.62;70.00;98067.66;4926957;28;103084;-74
2023/08/27 02:35:25;;;;;;;399.70;383.95;;;;;;;26.62;69.73;98065.78;4927020;28;103377;-73
2023/08/27 02:37:53;;;;;;;409.38;393.52;;;;;;;26.55;70.08;98067.75;4923970;28;103292;-74
2023/08/27 02:40:23;;;;;;;359.65;345.77;;;;;;;26.67;69.27;98075.91;4904601;28;102804;-74
2023/08/27 02:42:52;;;;;;;300.48;289.17;;;;;;;26.72;68.83;98067.94;4891797;28;104095;-74
2023/08/27 02:45:20;;;;;;;284.63;273.65;;;;;;;26.72;68.78;98057.94;4911608;28;104158;-74
2023/08/27 02:47:49;;;;;;;282.73;271.70;;;;;;;26.72;68.84;98062.53;4911351;28;103197;-74
2023/08/27 02:50:18;;;;;;;334.15;321.13;;;;;;;26.55;68.36;98073.16;4914868;28;102609;-73
2023/08/27 02:52:46;;;;;;;384.23;369.40;;;;;;;26.35;70.03;98077.97;4928932;28;102616;-73
2023/08/27 02:55:14;;;;;;;373.30;358.90;;;;;;;26.45;69.46;98075.56;4910394;28;103444;-74
2023/08/27 02:57:43;;;;;;;346.20;332.73;;;;;;;26.61;69.07;98072.22;4928281;28;103104;-74
2023/08/27 03:00:13;;;;;;;345.98;332.60;;;;;;;26.55;68.25;98062.34;4910766;28;102903;-73
2023/08/27 03:02:41;;;;;;;376.10;361.45;;;;;;;26.44;69.97;98073.94;4911054;28;102743;-73
2023/08/27 03:05:10;;;;;;;380.50;365.77;;;;;;;26.51;69.42;98063.84;4927272;28;104557;-74
2023/08/27 03:07:38;;;;;;;301.88;290.33;;;;;;;26.70;69.34;98072.75;4910864;28;103635;-74
2023/08/27 03:10:07;;;;;;;271.10;260.57;;;;;;;26.75;68.94;98056.66;4911548;28;102924;-74
2023/08/27 03:12:35;;;;;;;300.65;288.92;;;;;;;26.77;69.18;98049.94;4912011;28;104548;-74
2023/08/27 03:15:03;;;;;;;269.73;259.33;;;;;;;26.87;68.66;98052.97;4911063;28;103937;-74
2023/08/27 03:17:31;;;;;;;288.27;277.08;;;;;;;26.86;68.75;98053.19;4911345;28;103052;-74
2023/08/27 03:19:59;;;;;;;319.83;307.43;;;;;;;26.77;68.71;98044.53;4910403;28;103677;-74
2023/08/27 03:22:28;;;;;;;344.17;330.50;;;;;;;26.77;68.52;98047.25;4910962;28;102656;-74
2023/08/27 03:25:00;;;;;;;289.38;278.13;;;;;;;26.89;68.39;98039.19;4926407;28;103883;-75
2023/08/27 03:27:28;;;;;;;360.83;346.45;;;;;;;26.69;69.05;98031.31;4910576;28;103162;-74
2023/08/27 03:29:56;;;;;;;365.52;351.35;;;;;;;26.78;69.45;98018.28;4910718;28;102773;-74
2023/08/27 03:32:24;;;;;;;376.97;362.30;;;;;;;26.57;69.91;98005.22;4910310;28;102797;-74
2023/08/27 03:34:52;;;;;;;362.33;348.40;;;;;;;26.67;69.92;97998.19;4927428;28;103908;-74
2023/08/27 03:37:22;;;;;;;383.25;368.40;;;;;;;26.64;69.92;98012.19;4920857;28;103111;-74
2023/08/27 03:39:54;;;;;;;364.85;350.75;;;;;;;26.18;71.54;98033.63;4917972;28;102783;-75
2023/08/27 03:42:21;;;;;;;381.70;367.05;;;;;;;26.65;70.66;98024.69;4927614;28;102739;-75
2023/08/27 03:44:52;;;;;;;379.58;364.98;;;;;;;26.62;70.38;98019.72;4924761;28;103191;-75
2023/08/27 03:47:19;;;;;;;388.48;373.13;;;;;;;26.72;70.43;98022.72;4928077;28;103211;-74
2023/08/27 03:49:47;;;;;;;322.43;310.37;;;;;;;26.38;71.83;98020.69;4925725;28;102964;-74
2023/08/27 03:52:16;;;;;;;352.67;339.17;;;;;;;26.67;70.60;98021.72;4926305;28;103024;-75
2023/08/27 03:54:44;;;;;;;345.43;332.07;;;;;;;26.77;70.38;98028.28;4925717;28;103814;-75
2023/08/27 03:57:13;;;;;;;359.60;345.60;;;;;;;26.47;69.80;98024.72;4910060;28;103444;-75
2023/08/27 03:59:41;;;;;;;247.45;237.52;;;;;;;24.23;81.31;98019.41;4910828;28;102737;-74
2023/08/27 04:02:09;;;;;;;236.10;226.85;;;;;;;25.30;78.32;98004.03;4926988;28;102593;-75
2023/08/27 04:04:37;;;;;;;296.43;285.30;;;;;;;26.19;74.76;97989.25;4910739;28;103426;-75
2023/08/27 04:07:07;;;;;;;374.85;360.55;;;;;;;26.50;73.54;97994.47;4926164;28;103202;-75
2023/08/27 04:09:35;;;;;;;386.52;371.70;;;;;;;26.56;72.85;98001.66;4925185;28;102888;-75
2023/08/27 04:12:03;;;;;;;324.67;312.20;;;;;;;25.57;74.58;97988.41;4926137;28;103037;-74
2023/08/27 04:14:33;;;;;;;256.03;246.23;;;;;;;25.71;75.76;97992.66;4925954;28;103411;-75
2023/08/27 04:17:01;;;;;;;261.60;251.67;;;;;;;25.82;75.17;97996.53;4926813;28;103426;-74
2023/08/27 04:19:28;;;;;;;363.92;350.33;;;;;;;26.30;73.77;97999.34;4925872;28;103076;-75
2023/08/27 04:21:57;;;;;;;366.35;352.45;;;;;;;26.46;73.21;98014.94;4926839;28;102732;-75
2023/08/27 04:24:25;;;;;;;366.97;353.27;;;;;;;26.66;72.54;98020.94;4927342;28;103231;-74
2023/08/27 04:26:53;;;;;;;359.30;345.88;;;;;;;26.74;72.10;98009.78;4926011;28;103216;-74
2023/08/27 04:29:23;;;;;;;337.67;325.02;;;;;;;26.61;71.09;98009.94;4926089;28;102580;-74
2023/08/27 04:31:52;;;;;;;321.63;309.30;;;;;;;26.73;71.17;98010.81;4927377;28;102733;-74
2023/08/27 04:34:20;;;;;;;331.57;319.30;;;;;;;26.87;71.37;98001.47;4924767;28;103955;-74
2023/08/27 04:36:48;;;;;;;276.37;265.70;;;;;;;25.12;77.08;97984.25;4925330;28;103236;-74
2023/08/27 04:39:18;;;;;;;189.98;182.20;;;;;;;24.83;80.06;97966.78;4926369;28;102618;-74
2023/08/27 04:41:47;;;;;;;149.95;143.63;;;;;;;24.24;82.49;97937.41;4925499;28;102849;-74
2023/08/27 04:44:15;;;;;;;141.98;135.88;;;;;;;24.96;80.90;97957.75;4922039;28;103560;-74
2023/08/27 04:46:43;;;;;;;225.40;216.43;;;;;;;25.07;79.68;97960.56;4905311;28;103249;-74
2023/08/27 04:49:12;;;;;;;237.88;228.77;;;;;;;25.41;78.36;97956.53;4907473;28;102738;-74
2023/08/27 04:51:40;;;;;;;270.48;260.38;;;;;;;26.06;76.40;97968.56;4908159;28;104093;-74
2023/08/27 04:54:08;;;;;;;295.88;284.73;;;;;;;26.30;75.42;97977.66;4925286;28;103231;-74
2023/08/27 04:56:36;;;;;;;330.20;317.67;;;;;;;26.47;73.96;97989.53;4925746;28;103330;-74
2023/08/27 04:59:04;;;;;;;262.83;252.63;;;;;;;25.66;75.11;97991.66;4926519;28;103017;-74
2023/08/27 05:01:32;;;;;;;196.37;188.53;;;;;;;25.28;78.89;97983.69;4927337;28;103094;-74
2023/08/27 05:04:02;;;;;;;194.60;186.90;;;;;;;25.80;77.45;97987.78;4926028;28;103318;-74
2023/08/27 05:06:31;;;;;;;275.67;265.40;;;;;;;26.42;75.08;97995.59;4925213;28;103291;-74
2023/08/27 05:09:01;;;;;;;265.70;255.57;;;;;;;26.27;73.89;97994.38;4924881;28;102872;-74
2023/08/27 05:11:29;;;;;;;221.98;213.30;;;;;;;26.08;74.72;97990.78;4925825;28;102770;-74
2023/08/27 05:13:59;;;;;;;240.63;231.43;;;;;;;26.03;74.95;97987.09;4926587;28;102839;-73
2023/08/27 05:16:28;;;;;;;208.80;200.30;;;;;;;25.54;76.73;97998.88;4931683;28;102491;-74
2023/08/27 05:18:57;;;;;;;278.63;268.57;;;;;;;26.42;74.39;97992.06;4925145;28;102995;-74
2023/08/27 05:21:24;;;;;;;222.90;214.20;;;;;;;25.90;74.74;97993.50;4926768;28;102551;-74
2023/08/27 05:23:54;;;;;;;259.10;249.50;;;;;;;26.43;74.33;98010.81;4888981;28;102766;-74
2023/08/27 05:26:22;;;;;;;219.47;211.03;;;;;;;26.04;74.99;98016.66;4891773;28;103294;-74
2023/08/27 05:28:50;;;;;;;229.17;220.63;;;;;;;26.44;74.76;98011.66;4909027;28;103197;-74
2023/08/27 05:31:18;;;;;;;269.60;259.50;;;;;;;26.64;73.77;98012.19;4925943;28;102585;-74
2023/08/27 05:33:46;;;;;;;288.38;277.75;;;;;;;26.80;72.77;98000.75;4908553;28;103289;-73
2023/08/27 05:36:14;;;;;;;277.65;266.90;;;;;;;26.55;72.81;98010.03;4925465;28;103600;-74
2023/08/27 05:38:41;;;;;;;287.88;277.38;;;;;;;26.82;72.73;98016.78;4926469;28;102892;-73
2023/08/27 05:41:11;;;;;;;281.63;271.27;;;;;;;26.95;72.07;98014.69;4909843;28;103632;-74
2023/08/27 05:43:39;;;;;;;292.57;281.60;;;;;;;26.64;72.37;98016.81;4921396;28;103252;-74
2023/08/27 05:46:06;;;;;;;226.88;218.15;;;;;;;26.07;73.65;98016.22;4905551;28;103491;-75
2023/08/27 05:48:35;;;;;;;199.98;192.13;;;;;;;25.81;75.31;98020.03;4888967;28;102688;-74
2023/08/27 05:51:03;;;;;;;221.60;213.48;;;;;;;26.58;73.49;98015.00;4917629;28;102645;-74
2023/08/27 05:53:31;;;;;;;246.60;237.27;;;;;;;26.52;73.10;98008.63;4924162;28;105118;-74
2023/08/27 05:55:59;;;;;;;264.30;254.30;;;;;;;26.91;71.79;98016.22;4908228;28;103408;-74
2023/08/27 05:58:28;;;;;;;254.50;244.90;;;;;;;27.06;71.45;98016.59;4909128;28;102803;-75
2023/08/27 06:00:56;;;;;;;270.48;260.27;;;;;;;26.81;71.63;98018.66;4924100;28;103002;-74
2023/08/27 06:03:25;;;;;;;271.27;261.23;;;;;;;26.74;72.83;98017.06;4915912;28;103324;-74
2023/08/27 06:05:52;;;;;;;269.08;258.95;;;;;;;26.59;72.68;98014.75;4923947;28;103128;-74
2023/08/27 06:08:20;;;;;;;249.40;239.87;;;;;;;26.14;72.79;98010.75;4925184;28;102879;-74
2023/08/27 06:10:48;;;;;;;279.48;269.08;;;;;;;26.74;72.06;98012.47;4908734;28;104146;-74
2023/08/27 06:13:16;;;;;;;242.13;232.95;;;;;;;26.92;71.82;98009.72;4908195;28;104451;-74
2023/08/27 06:15:46;;;;;;;260.00;250.10;;;;;;;26.99;71.57;98007.75;4926508;28;103682;-74
2023/08/27 06:18:15;;;;;;;279.88;269.48;;;;;;;26.69;72.07;97995.25;4927765;28;102752;-75
2023/08/27 06:20:43;;;;;;;269.23;259.13;;;;;;;26.93;72.09;97989.72;4912073;28;102613;-75
2023/08/27 06:23:11;;;;;;;256.23;246.38;;;;;;;27.02;70.94;97993.75;4912132;28;103513;-74
2023/08/27 06:25:39;;;;;;;202.70;194.90;;;;;;;27.23;70.30;97986.94;4933991;28;103397;-74
2023/08/27 06:28:08;;;;;;;170.35;163.57;;;;;;;27.27;69.87;97968.31;4931378;28;102872;-74
2023/08/27 06:30:41;;;;;;;192.18;184.57;;;;;;;27.11;69.90;97963.59;4934299;28;102675;-74
2023/08/27 06:33:11;;;;;;;233.83;224.87;;;;;;;27.16;70.41;97967.25;4912194;28;103205;-74
2023/08/27 06:35:40;;;;;;;251.30;241.73;;;;;;;27.25;70.50;97970.44;4928002;28;103085;-75
2023/08/27 06:38:10;;;;;;;257.63;247.93;;;;;;;27.04;70.69;97972.66;4926900;28;102549;-75
2023/08/27 06:40:38;;;;;;;245.65;236.48;;;;;;;27.22;70.47;97987.19;4927532;28;102791;-74
2023/08/27 06:43:06;;;;;;;237.98;228.95;;;;;;;27.13;70.60;97999.41;4911514;28;104817;-74
2023/08/27 06:45:36;;;;;;;246.55;237.30;;;;;;;26.84;71.21;97999.22;4929167;28;103197;-74
2023/08/27 06:48:05;;;;;;;235.60;226.80;;;;;;;26.48;72.54;97991.16;4911901;28;103222;-75
2023/08/27 06:50:36;;;;;;;206.55;198.75;;;;;;;26.14;74.42;98010.75;4927268;28;104286;-74
2023/08/27 06:53:05;;;;;;;226.82;218.32;;;;;;;26.21;73.94;98011.50;4927841;28;103644;-74
2023/08/27 06:55:33;;;;;;;220.17;211.97;;;;;;;25.95;74.57;98023.41;4927497;28;104922;-74
2023/08/27 06:58:01;;;;;;;195.30;188.10;;;;;;;25.40;74.55;98027.88;4927478;28;103130;-75
2023/08/27 07:00:31;;;;;;;205.13;197.68;;;;;;;25.89;72.97;98030.56;4927259;28;102950;-74
2023/08/27 07:03:00;;;;;;;205.88;198.27;;;;;;;26.16;72.40;98041.16;4910867;28;103099;-75
2023/08/27 07:05:30;;;;;;;220.97;212.87;;;;;;;25.54;74.34;98048.38;4926691;28;103396;-74
2023/08/27 07:07:59;;;;;;;218.13;210.03;;;;;;;25.96;74.80;98041.31;4927994;28;102816;-74
2023/08/27 07:10:27;;;;;;;194.65;187.32;;;;;;;26.31;72.20;98022.63;4927189;28;103038;-75
2023/08/27 07:12:58;;;;;;;165.98;159.68;;;;;;;26.70;71.00;98015.84;4911208;28;104633;-74
2023/08/27 07:15:27;;;;;;;196.75;189.52;;;;;;;25.96;72.85;98016.97;4910633;28;103168;-75
2023/08/27 07:17:57;;;;;;;193.43;186.23;;;;;;;25.93;73.15;98010.13;4911572;28;102936;-74
2023/08/27 07:20:26;;;;;;;193.52;186.23;;;;;;;26.63;70.75;97994.31;4911702;28;104076;-75
2023/08/27 07:22:54;;;;;;;164.33;158.13;;;;;;;26.75;69.87;98000.56;4910781;28;104999;-74
2023/08/27 07:25:23;;;;;;;108.18;103.95;;;;;;;27.02;68.78;97993.75;4928498;28;104591;-74
2023/08/27 07:27:52;;;;;;;108.60;104.37;;;;;;;27.26;68.68;97991.06;4915017;28;102898;-72
2023/08/27 07:30:20;;;;;;;87.20;83.80;;;;;;;27.23;67.87;97984.22;4935971;28;102673;-73
2023/08/27 07:32:51;;;;;;;147.98;142.20;;;;;;;27.10;68.69;97989.03;4934592;28;103866;-74
2023/08/27 07:35:19;;;;;;;91.25;87.65;;;;;;;27.48;67.41;97995.72;4928189;28;103256;-74
2023/08/27 07:37:47;;;;;;;81.63;78.35;;;;;;;27.56;66.92;97989.13;4924484;28;102665;-74
2023/08/27 07:40:15;;;;;;;61.65;59.15;;;;;;;27.73;66.20;97983.81;4923565;28;102976;-74
2023/08/27 07:42:45;;;;;;;64.00;61.42;;;;;;;27.74;66.18;97980.84;4910226;28;103207;-74
2023/08/27 07:45:12;;;;;;;96.88;93.07;;;;;;;27.65;67.07;97989.59;4911425;28;103306;-73
2023/08/27 07:47:40;;;;;;;85.15;81.78;;;;;;;27.57;66.78;97990.78;4910762;28;102842;-74
2023/08/27 07:50:09;;;;;;;64.80;62.20;;;;;;;27.93;66.38;98003.28;4912613;28;102838;-74
2023/08/27 07:52:38;;;;;;;87.50;84.10;;;;;;;27.35;66.89;98020.31;4909463;28;103457;-74
2023/08/27 07:55:07;;;;;;;79.88;76.75;;;;;;;27.58;67.39;98024.97;4910634;28;103530;-74
2023/08/27 07:57:38;;;;;;;204.88;197.23;;;;;;;26.70;71.88;98040.25;4926872;28;102888;-74
2023/08/27 08:00:09;;;;;;;201.45;194.00;;;;;;;26.43;72.38;98037.06;4928360;28;103231;-74
2023/08/27 08:02:47;;;;;;;149.87;144.20;;;;;;;27.13;69.43;98040.91;4926336;28;104392;-74
2023/08/27 08:05:15;;;;;;;188.25;181.23;;;;;;;26.71;71.73;98059.00;4928061;28;103204;-74
2023/08/27 08:07:43;;;;;;;173.90;167.38;;;;;;;26.52;70.73;98068.22;4927790;28;102504;-74
2023/08/27 08:10:11;;;;;;;180.85;174.02;;;;;;;25.91;74.51;98077.16;4928612;28;102651;-73
2023/08/27 08:12:39;;;;;;;172.23;165.80;;;;;;;26.81;70.73;98083.69;4927458;28;104155;-74
2023/08/27 08:15:09;;;;;;;130.85;125.85;;;;;;;26.99;68.73;98080.94;4910399;28;103223;-74
2023/08/27 08:17:36;;;;;;;113.93;109.57;;;;;;;27.36;68.38;98080.81;4925409;28;102886;-74
2023/08/27 08:20:13;;;;;;;140.50;135.23;;;;;;;27.23;68.74;98083.75;4928457;28;102738;-74
2023/08/27 08:22:41;;;;;;;146.60;141.05;;;;;;;26.99;69.24;98090.94;4926742;28;104052;-73
2023/08/27 08:25:09;;;;;;;144.55;139.07;;;;;;;27.01;68.94;98089.66;4910047;28;103370;-73
2023/08/27 08:27:37;;;;;;;174.47;167.97;;;;;;;27.23;70.14;98086.44;4928140;28;102789;-74
2023/08/27 08:30:08;;;;;;;143.55;138.00;;;;;;;27.63;68.62;98091.03;4928192;28;102565;-73
2023/08/27 08:32:36;;;;;;;123.67;118.90;;;;;;;27.91;67.22;98079.50;4927448;28;103265;-73
2023/08/27 08:35:04;;;;;;;113.78;109.32;;;;;;;27.99;67.87;98098.13;4927465;28;103291;-73
2023/08/27 08:37:32;;;;;;;78.43;75.33;;;;;;;28.09;65.79;98094.88;4927862;28;102722;-74
2023/08/27 08:40:03;;;;;;;104.28;100.20;;;;;;;27.46;67.54;98108.22;4926640;28;104456;-73
2023/08/27 08:42:40;;;;;;;122.73;117.93;;;;;;;28.05;67.80;98110.81;4926756;28;103320;-73
2023/08/27 08:45:16;;;;;;;139.07;133.63;;;;;;;27.87;67.53;98099.22;4927230;28;103814;-74
2023/08/27 08:47:45;;;;;;;123.77;118.97;;;;;;;27.99;67.19;98084.56;4909919;28;102593;-73
2023/08/27 08:50:15;;;;;;;98.88;94.97;;;;;;;27.66;66.77;98070.75;4927217;28;103926;-74
2023/08/27 08:52:46;;;;;;;92.65;89.07;;;;;;;27.96;65.99;98059.78;4926305;28;104385;-74
2023/08/27 08:55:17;;;;;;;104.05;99.95;;;;;;;27.90;65.90;98049.91;4927493;28;103233;-72
2023/08/27 08:57:48;;;;;;;98.07;94.23;;;;;;;28.29;65.32;98057.31;4928340;28;103271;-73
2023/08/27 09:00:19;;;;;;;82.47;78.97;;;;;;;27.66;65.03;98059.06;4928112;28;104481;-74
2023/08/27 09:02:47;;;;;;;120.15;115.65;;;;;;;27.53;67.56;98073.69;4910855;28;103700;-73
2023/08/27 09:05:18;;;;;;;104.55;100.50;;;;;;;27.92;66.69;98067.59;4909419;28;103297;-73
2023/08/27 09:07:47;;;;;;;90.32;86.80;;;;;;;28.12;64.68;98070.81;4927060;28;102496;-73
2023/08/27 09:10:17;;;;;;;121.15;116.53;;;;;;;27.72;66.00;98077.97;4927597;28;103148;-74
2023/08/27 09:12:47;;;;;;;105.38;101.28;;;;;;;27.61;65.95;98068.75;4926817;28;103662;-74
2023/08/27 09:15:17;;;;;;;123.95;119.32;;;;;;;27.01;67.81;98073.41;4927294;28;103465;-73
2023/08/27 09:17:48;;;;;;;108.43;104.15;;;;;;;27.61;65.95;98068.75;4910008;28;102646;-73
2023/08/27 09:20:16;;;;;;;87.65;84.15;;;;;;;28.24;64.76;98061.81;4927734;28;102892;-73
2023/08/27 09:22:44;;;;;;;130.52;125.45;;;;;;;27.78;67.49;98063.47;4926224;28;103296;-73
2023/08/27 09:25:12;;;;;;;98.00;94.07;;;;;;;28.53;63.50;98075.22;4927402;28;103371;-73
2023/08/27 09:27:40;;;;;;;102.27;98.27;;;;;;;27.91;65.27;98070.53;4926353;28;102971;-73
2023/08/27 09:30:11;;;;;;;104.15;99.95;;;;;;;28.13;62.93;98061.56;4925550;28;104278;-74
2023/08/27 09:32:40;;;;;;;118.80;114.10;;;;;;;27.36;64.98;98043.69;4924301;28;103388;-73
2023/08/27 09:35:11;;;;;;;125.40;120.40;;;;;;;28.19;62.45;98047.06;4926584;28;103663;-73
2023/08/27 09:37:40;;;;;;;128.93;123.80;;;;;;;28.13;63.17;98031.72;4926827;28;102889;-74
2023/08/27 09:40:14;;;;;;;142.27;136.45;;;;;;;28.95;60.08;98040.47;4922440;28;102754;-73
2023/08/27 09:42:46;;;;;;;139.32;133.70;;;;;;;28.51;60.29;98033.88;4907202;28;103939;-73
2023/08/27 09:45:18;;;;;;;168.60;161.73;;;;;;;28.71;59.39;98038.94;4907283;28;103278;-74
2023/08/27 09:47:48;;;;;;;127.90;122.75;;;;;;;28.63;60.50;98033.88;4907309;28;102933;-73
2023/08/27 09:50:18;;;;;;;113.80;109.30;;;;;;;29.13;60.98;98028.56;4914333;28;104192;-74
2023/08/27 09:52:47;;;;;;;105.53;101.35;;;;;;;28.04;61.65;98025.00;4928935;28;103288;-73
2023/08/27 09:55:16;;;;;;;102.67;98.67;;;;;;;27.76;64.86;98027.59;4929937;28;103671;-73
2023/08/27 09:57:49;;;;;;;97.65;93.75;;;;;;;28.07;62.62;98029.94;4931009;28;102551;-73
2023/08/27 10:00:18;;;;;;;95.15;91.25;;;;;;;28.24;63.95;98038.19;4937859;28;102559;-74
2023/08/27 10:02:49;;;;;;;106.82;102.60;;;;;;;27.21;65.33;98050.59;4934766;28;103372;-73
2023/08/27 10:05:17;;;;;;;101.03;97.13;;;;;;;28.91;63.28;98046.66;4930597;28;103201;-73
2023/08/27 10:07:56;;;;;;;95.18;91.40;;;;;;;28.89;62.46;98038.72;4930650;28;102845;-73
2023/08/27 10:10:25;;;;;;;93.97;90.27;;;;;;;28.85;62.14;98042.19;4928709;28;102964;-74
2023/08/27 10:12:54;;;;;;;126.75;121.68;;;;;;;28.45;60.45;98036.72;4929487;28;104299;-74
2023/08/27 10:15:24;;;;;;;115.72;111.22;;;;;;;29.00;59.80;98043.28;4930025;28;103417;-74
2023/08/27 10:17:53;;;;;;;110.30;106.00;;;;;;;28.67;60.78;98040.47;4929662;28;102789;-74
2023/08/27 10:20:21;;;;;;;208.40;199.90;;;;;;;28.03;62.65;98042.34;4929309;28;102584;-74
2023/08/27 10:22:50;;;;;;;135.43;130.15;;;;;;;28.41;59.91;98043.72;4928321;28;103556;-74
2023/08/27 10:25:19;;;;;;;192.60;184.90;;;;;;;29.15;59.06;98029.97;4929320;28;103455;-74
2023/08/27 10:27:48;;;;;;;144.88;139.18;;;;;;;30.13;59.16;98029.38;4929247;28;103035;-74
2023/08/27 10:30:18;;;;;;;150.70;144.63;;;;;;;28.62;56.77;98019.44;4929272;28;104280;-74
2023/08/27 10:32:46;;;;;;;88.32;84.80;;;;;;;29.76;59.63;98022.81;4928191;28;103322;-74
2023/08/27 10:35:17;;;;;;;198.47;190.77;;;;;;;31.00;55.01;98013.84;4929016;28;103194;-74
2023/08/27 10:37:50;;;;;;;217.77;209.68;;;;;;;31.66;53.57;98021.84;4927563;28;102609;-74
2023/08/27 10:40:21;;;;;;;128.40;123.30;;;;;;;30.40;53.07;98013.97;4929608;28;102929;-74
2023/08/27 10:42:49;;;;;;;142.68;137.18;;;;;;;30.37;55.14;98006.28;4929291;28;103244;-74
2023/08/27 10:45:19;;;;;;;164.90;158.65;;;;;;;30.30;55.70;98002.91;4928793;28;103220;-73
2023/08/27 10:48:10;;;;;;;134.90;129.63;;;;;;;30.32;53.86;98016.28;4928644;28;102783;-74
2023/08/27 10:50:48;;;;;;;155.07;149.10;;;;;;;29.99;54.02;98011.75;4927089;28;102702;-74
2023/08/27 10:53:17;;;;;;;248.27;239.38;;;;;;;31.27;54.32;98013.81;4927560;28;103366;-74
2023/08/27 10:55:50;;;;;;;202.98;195.55;;;;;;;31.32;54.67;98021.25;4929183;28;103168;-74
2023/08/27 10:58:20;;;;;;;234.90;226.40;;;;;;;31.73;51.96;98011.50;4929560;28;102503;-74
2023/08/27 11:01:02;;;;;;;173.95;167.38;;;;;;;31.40;51.84;98024.34;4927872;28;102797;-74
2023/08/27 11:03:52;;;;;;;185.87;178.93;;;;;;;31.69;50.43;98021.31;4929264;28;103330;-74